sensor_id;sensor_type;location;lat;lon;timestamp;P1;durP1;ratioP1;P2;durP2;ratioP2
10550;SDS011;5324;50.684;3.862;2022-07-29T00:00:57;3.88;;;1.77;;
10550;SDS011;5324;50.684;3.862;2022-07-29T00:03:24;1.73;;;1.52;;
10550;SDS011;5324;50.684;3.862;2022-07-29T00:05:50;2.60;;;1.60;;
10550;SDS011;5324;50.684;3.862;2022-07-29T00:08:18;1.70;;;1.58;;
10550;SDS011;5324;50.684;3.862;2022-07-29T00:10:44;1.70;;;1.52;;
10550;SDS011;5324;50.684;3.862;2022-07-29T00:13:10;2.17;;;1.55;;
10550;SDS011;5324;50.684;3.862;2022-07-29T00:15:36;1.77;;;1.55;;
10550;SDS011;5324;50.684;3.862;2022-07-29T00:18:02;2.00;;;1.58;;
10550;SDS011;5324;50.684;3.862;2022-07-29T00:20:29;2.75;;;1.80;;
10550;SDS011;5324;50.684;3.862;2022-07-29T00:22:55;2.03;;;1.50;;
10550;SDS011;5324;50.684;3.862;2022-07-29T00:25:21;5.60;;;1.80;;
10550;SDS011;5324;50.684;3.862;2022-07-29T00:27:47;4.40;;;1.90;;
10550;SDS011;5324;50.684;3.862;2022-07-29T00:30:13;4.93;;;1.63;;
10550;SDS011;5324;50.684;3.862;2022-07-29T00:32:39;4.03;;;1.60;;
10550;SDS011;5324;50.684;3.862;2022-07-29T00:35:05;2.75;;;1.70;;
10550;SDS011;5324;50.684;3.862;2022-07-29T00:37:50;5.40;;;1.80;;
10550;SDS011;5324;50.684;3.862;2022-07-29T00:40:16;2.10;;;1.58;;
10550;SDS011;5324;50.684;3.862;2022-07-29T00:42:46;5.13;;;2.08;;
10550;SDS011;5324;50.684;3.862;2022-07-29T00:45:13;8.50;;;1.73;;
10550;SDS011;5324;50.684;3.862;2022-07-29T00:47:39;2.53;;;1.48;;
10550;SDS011;5324;50.684;3.862;2022-07-29T00:50:06;4.72;;;1.67;;
10550;SDS011;5324;50.684;3.862;2022-07-29T00:52:33;3.15;;;1.60;;
10550;SDS011;5324;50.684;3.862;2022-07-29T00:54:59;4.43;;;1.92;;
10550;SDS011;5324;50.684;3.862;2022-07-29T00:57:25;3.08;;;1.58;;
10550;SDS011;5324;50.684;3.862;2022-07-29T00:59:51;1.92;;;1.40;;
10550;SDS011;5324;50.684;3.862;2022-07-29T01:02:17;2.25;;;1.65;;
10550;SDS011;5324;50.684;3.862;2022-07-29T01:04:43;2.92;;;1.60;;
10550;SDS011;5324;50.684;3.862;2022-07-29T01:07:09;1.73;;;1.63;;
10550;SDS011;5324;50.684;3.862;2022-07-29T01:09:35;2.35;;;1.50;;
10550;SDS011;5324;50.684;3.862;2022-07-29T01:12:02;2.22;;;1.77;;
10550;SDS011;5324;50.684;3.862;2022-07-29T01:14:29;2.22;;;1.58;;
10550;SDS011;5324;50.684;3.862;2022-07-29T01:17:00;2.13;;;1.65;;
10550;SDS011;5324;50.684;3.862;2022-07-29T01:29:41;3.25;;;1.63;;
10550;SDS011;5324;50.684;3.862;2022-07-29T01:32:14;2.65;;;1.80;;
10550;SDS011;5324;50.684;3.862;2022-07-29T01:34:41;2.25;;;1.70;;
10550;SDS011;5324;50.684;3.862;2022-07-29T01:37:15;3.10;;;1.80;;
10550;SDS011;5324;50.684;3.862;2022-07-29T01:39:44;3.47;;;1.53;;
10550;SDS011;5324;50.684;3.862;2022-07-29T01:42:20;5.78;;;1.83;;
10550;SDS011;5324;50.684;3.862;2022-07-29T01:47:20;3.53;;;1.88;;
10550;SDS011;5324;50.684;3.862;2022-07-29T01:49:48;4.03;;;1.70;;
10550;SDS011;5324;50.684;3.862;2022-07-29T01:52:19;2.10;;;1.58;;
10550;SDS011;5324;50.684;3.862;2022-07-29T01:54:48;3.10;;;1.83;;
10550;SDS011;5324;50.684;3.862;2022-07-29T01:57:16;4.47;;;1.90;;
10550;SDS011;5324;50.684;3.862;2022-07-29T01:59:45;3.07;;;1.90;;
10550;SDS011;5324;50.684;3.862;2022-07-29T02:02:12;1.80;;;1.47;;
10550;SDS011;5324;50.684;3.862;2022-07-29T02:04:39;2.38;;;1.95;;
10550;SDS011;5324;50.684;3.862;2022-07-29T02:07:05;2.13;;;1.57;;
10550;SDS011;5324;50.684;3.862;2022-07-29T02:09:33;2.70;;;1.80;;
10550;SDS011;5324;50.684;3.862;2022-07-29T02:12:00;2.53;;;1.83;;
10550;SDS011;5324;50.684;3.862;2022-07-29T02:14:28;2.07;;;1.67;;
10550;SDS011;5324;50.684;3.862;2022-07-29T02:16:56;3.13;;;1.80;;
10550;SDS011;5324;50.684;3.862;2022-07-29T02:19:23;2.80;;;1.67;;
10550;SDS011;5324;50.684;3.862;2022-07-29T02:21:51;2.43;;;1.80;;
10550;SDS011;5324;50.684;3.862;2022-07-29T02:24:18;2.47;;;1.73;;
10550;SDS011;5324;50.684;3.862;2022-07-29T02:26:45;4.57;;;1.80;;
10550;SDS011;5324;50.684;3.862;2022-07-29T02:29:12;2.20;;;2.00;;
10550;SDS011;5324;50.684;3.862;2022-07-29T02:31:39;1.80;;;1.60;;
10550;SDS011;5324;50.684;3.862;2022-07-29T02:34:08;2.60;;;1.87;;
10550;SDS011;5324;50.684;3.862;2022-07-29T02:36:34;2.60;;;2.00;;
10550;SDS011;5324;50.684;3.862;2022-07-29T02:39:02;4.33;;;1.60;;
10550;SDS011;5324;50.684;3.862;2022-07-29T02:44:01;3.13;;;2.00;;
10550;SDS011;5324;50.684;3.862;2022-07-29T02:46:29;2.17;;;1.53;;
10550;SDS011;5324;50.684;3.862;2022-07-29T02:48:58;2.40;;;1.70;;
10550;SDS011;5324;50.684;3.862;2022-07-29T02:51:27;3.40;;;2.10;;
10550;SDS011;5324;50.684;3.862;2022-07-29T02:53:56;2.60;;;1.90;;
10550;SDS011;5324;50.684;3.862;2022-07-29T02:56:23;2.70;;;2.17;;
10550;SDS011;5324;50.684;3.862;2022-07-29T02:58:53;3.33;;;1.90;;
10550;SDS011;5324;50.684;3.862;2022-07-29T03:01:20;1.83;;;1.70;;
10550;SDS011;5324;50.684;3.862;2022-07-29T03:03:48;3.73;;;2.00;;
10550;SDS011;5324;50.684;3.862;2022-07-29T03:06:15;2.10;;;1.73;;
10550;SDS011;5324;50.684;3.862;2022-07-29T03:08:41;1.90;;;1.70;;
10550;SDS011;5324;50.684;3.862;2022-07-29T03:11:08;2.23;;;1.77;;
10550;SDS011;5324;50.684;3.862;2022-07-29T03:13:34;4.67;;;2.60;;
10550;SDS011;5324;50.684;3.862;2022-07-29T03:16:01;4.30;;;1.93;;
10550;SDS011;5324;50.684;3.862;2022-07-29T03:18:27;3.07;;;1.80;;
10550;SDS011;5324;50.684;3.862;2022-07-29T03:20:53;2.20;;;2.00;;
10550;SDS011;5324;50.684;3.862;2022-07-29T03:23:20;5.40;;;2.30;;
10550;SDS011;5324;50.684;3.862;2022-07-29T03:25:48;2.93;;;1.63;;
10550;SDS011;5324;50.684;3.862;2022-07-29T03:28:14;2.70;;;2.00;;
10550;SDS011;5324;50.684;3.862;2022-07-29T03:30:40;3.03;;;2.03;;
10550;SDS011;5324;50.684;3.862;2022-07-29T03:33:06;3.47;;;2.07;;
10550;SDS011;5324;50.684;3.862;2022-07-29T03:35:32;4.07;;;2.00;;
10550;SDS011;5324;50.684;3.862;2022-07-29T03:37:58;3.23;;;2.40;;
10550;SDS011;5324;50.684;3.862;2022-07-29T03:40:46;4.33;;;2.67;;
10550;SDS011;5324;50.684;3.862;2022-07-29T03:43:14;2.57;;;2.00;;
10550;SDS011;5324;50.684;3.862;2022-07-29T03:45:42;5.43;;;1.80;;
10550;SDS011;5324;50.684;3.862;2022-07-29T03:48:09;1.97;;;1.70;;
10550;SDS011;5324;50.684;3.862;2022-07-29T03:50:36;5.73;;;2.53;;
10550;SDS011;5324;50.684;3.862;2022-07-29T03:53:02;3.60;;;2.00;;
10550;SDS011;5324;50.684;3.862;2022-07-29T03:55:29;5.10;;;2.57;;
10550;SDS011;5324;50.684;3.862;2022-07-29T03:57:57;4.53;;;1.90;;
10550;SDS011;5324;50.684;3.862;2022-07-29T04:00:26;8.03;;;2.50;;
10550;SDS011;5324;50.684;3.862;2022-07-29T04:02:53;2.57;;;2.37;;
10550;SDS011;5324;50.684;3.862;2022-07-29T04:05:19;5.43;;;2.00;;
10550;SDS011;5324;50.684;3.862;2022-07-29T04:07:45;3.97;;;2.50;;
10550;SDS011;5324;50.684;3.862;2022-07-29T04:10:11;4.47;;;2.20;;
10550;SDS011;5324;50.684;3.862;2022-07-29T04:12:38;4.60;;;2.10;;
10550;SDS011;5324;50.684;3.862;2022-07-29T04:15:04;3.00;;;2.10;;
10550;SDS011;5324;50.684;3.862;2022-07-29T04:17:30;3.43;;;2.10;;
10550;SDS011;5324;50.684;3.862;2022-07-29T04:19:56;4.20;;;2.37;;
10550;SDS011;5324;50.684;3.862;2022-07-29T04:22:22;2.43;;;2.17;;
10550;SDS011;5324;50.684;3.862;2022-07-29T04:24:48;4.70;;;2.70;;
10550;SDS011;5324;50.684;3.862;2022-07-29T04:27:14;3.40;;;2.40;;
10550;SDS011;5324;50.684;3.862;2022-07-29T04:29:40;11.33;;;2.83;;
10550;SDS011;5324;50.684;3.862;2022-07-29T04:32:06;3.70;;;2.53;;
10550;SDS011;5324;50.684;3.862;2022-07-29T04:34:32;5.73;;;2.37;;
10550;SDS011;5324;50.684;3.862;2022-07-29T04:36:58;6.40;;;2.47;;
10550;SDS011;5324;50.684;3.862;2022-07-29T04:39:24;10.50;;;2.60;;
10550;SDS011;5324;50.684;3.862;2022-07-29T04:41:50;3.40;;;2.30;;
10550;SDS011;5324;50.684;3.862;2022-07-29T04:44:16;5.20;;;2.30;;
10550;SDS011;5324;50.684;3.862;2022-07-29T04:46:43;3.63;;;2.50;;
10550;SDS011;5324;50.684;3.862;2022-07-29T04:49:09;7.03;;;2.13;;
10550;SDS011;5324;50.684;3.862;2022-07-29T04:51:35;2.10;;;1.90;;
10550;SDS011;5324;50.684;3.862;2022-07-29T04:54:01;2.33;;;2.13;;
10550;SDS011;5324;50.684;3.862;2022-07-29T04:56:27;3.50;;;1.93;;
10550;SDS011;5324;50.684;3.862;2022-07-29T04:58:53;2.67;;;2.03;;
10550;SDS011;5324;50.684;3.862;2022-07-29T05:01:19;2.47;;;2.00;;
10550;SDS011;5324;50.684;3.862;2022-07-29T05:03:45;2.13;;;1.80;;
10550;SDS011;5324;50.684;3.862;2022-07-29T05:06:11;3.07;;;1.83;;
10550;SDS011;5324;50.684;3.862;2022-07-29T05:08:37;2.93;;;2.00;;
10550;SDS011;5324;50.684;3.862;2022-07-29T05:11:03;3.37;;;1.83;;
10550;SDS011;5324;50.684;3.862;2022-07-29T05:13:30;3.40;;;1.80;;
10550;SDS011;5324;50.684;3.862;2022-07-29T05:15:56;4.83;;;2.40;;
10550;SDS011;5324;50.684;3.862;2022-07-29T05:18:23;3.97;;;2.30;;
10550;SDS011;5324;50.684;3.862;2022-07-29T05:20:49;8.00;;;2.50;;
10550;SDS011;5324;50.684;3.862;2022-07-29T05:23:15;3.37;;;2.17;;
10550;SDS011;5324;50.684;3.862;2022-07-29T05:25:41;2.87;;;2.57;;
10550;SDS011;5324;50.684;3.862;2022-07-29T05:28:07;3.20;;;2.47;;
10550;SDS011;5324;50.684;3.862;2022-07-29T05:30:33;3.20;;;2.57;;
10550;SDS011;5324;50.684;3.862;2022-07-29T05:32:59;4.33;;;2.90;;
10550;SDS011;5324;50.684;3.862;2022-07-29T05:35:25;6.23;;;3.03;;
10550;SDS011;5324;50.684;3.862;2022-07-29T05:37:51;6.87;;;3.30;;
10550;SDS011;5324;50.684;3.862;2022-07-29T05:40:17;6.27;;;2.90;;
10550;SDS011;5324;50.684;3.862;2022-07-29T05:42:43;4.63;;;2.67;;
10550;SDS011;5324;50.684;3.862;2022-07-29T05:45:09;4.73;;;3.13;;
10550;SDS011;5324;50.684;3.862;2022-07-29T05:47:36;7.27;;;3.30;;
10550;SDS011;5324;50.684;3.862;2022-07-29T05:50:02;5.97;;;2.90;;
10550;SDS011;5324;50.684;3.862;2022-07-29T05:52:29;6.37;;;2.57;;
10550;SDS011;5324;50.684;3.862;2022-07-29T05:54:55;8.27;;;2.93;;
10550;SDS011;5324;50.684;3.862;2022-07-29T05:57:22;3.63;;;2.77;;
10550;SDS011;5324;50.684;3.862;2022-07-29T05:59:49;5.33;;;3.10;;
10550;SDS011;5324;50.684;3.862;2022-07-29T06:02:15;9.63;;;3.35;;
10550;SDS011;5324;50.684;3.862;2022-07-29T06:04:41;8.47;;;3.47;;
10550;SDS011;5324;50.684;3.862;2022-07-29T06:07:07;5.82;;;3.58;;
10550;SDS011;5324;50.684;3.862;2022-07-29T06:09:34;4.82;;;3.40;;
10550;SDS011;5324;50.684;3.862;2022-07-29T06:12:00;7.10;;;3.60;;
10550;SDS011;5324;50.684;3.862;2022-07-29T06:14:26;8.07;;;3.47;;
10550;SDS011;5324;50.684;3.862;2022-07-29T06:16:53;6.22;;;3.00;;
10550;SDS011;5324;50.684;3.862;2022-07-29T06:19:19;4.30;;;2.92;;
10550;SDS011;5324;50.684;3.862;2022-07-29T06:21:45;3.67;;;2.38;;
10550;SDS011;5324;50.684;3.862;2022-07-29T06:24:12;4.60;;;3.40;;
10550;SDS011;5324;50.684;3.862;2022-07-29T06:26:38;9.50;;;3.35;;
10550;SDS011;5324;50.684;3.862;2022-07-29T06:29:05;7.13;;;3.30;;
10550;SDS011;5324;50.684;3.862;2022-07-29T06:31:31;6.50;;;3.22;;
10550;SDS011;5324;50.684;3.862;2022-07-29T06:33:57;5.07;;;3.17;;
10550;SDS011;5324;50.684;3.862;2022-07-29T06:36:23;8.63;;;2.78;;
10550;SDS011;5324;50.684;3.862;2022-07-29T06:38:49;4.00;;;2.85;;
10550;SDS011;5324;50.684;3.862;2022-07-29T06:41:15;4.55;;;3.05;;
10550;SDS011;5324;50.684;3.862;2022-07-29T06:43:42;3.92;;;2.58;;
10550;SDS011;5324;50.684;3.862;2022-07-29T06:46:13;6.78;;;2.80;;
10550;SDS011;5324;50.684;3.862;2022-07-29T06:48:39;7.68;;;3.03;;
10550;SDS011;5324;50.684;3.862;2022-07-29T06:51:07;4.00;;;3.00;;
10550;SDS011;5324;50.684;3.862;2022-07-29T06:53:33;4.90;;;3.05;;
10550;SDS011;5324;50.684;3.862;2022-07-29T06:55:59;7.03;;;3.50;;
10550;SDS011;5324;50.684;3.862;2022-07-29T06:58:26;5.15;;;3.50;;
10550;SDS011;5324;50.684;3.862;2022-07-29T07:00:52;3.75;;;3.25;;
10550;SDS011;5324;50.684;3.862;2022-07-29T07:03:18;3.70;;;3.15;;
10550;SDS011;5324;50.684;3.862;2022-07-29T07:05:44;4.63;;;3.47;;
10550;SDS011;5324;50.684;3.862;2022-07-29T07:08:11;5.60;;;3.47;;
10550;SDS011;5324;50.684;3.862;2022-07-29T07:10:37;3.75;;;2.92;;
10550;SDS011;5324;50.684;3.862;2022-07-29T07:13:03;4.35;;;2.85;;
10550;SDS011;5324;50.684;3.862;2022-07-29T07:15:30;5.20;;;3.38;;
10550;SDS011;5324;50.684;3.862;2022-07-29T07:17:56;3.97;;;2.92;;
10550;SDS011;5324;50.684;3.862;2022-07-29T07:20:24;5.93;;;3.20;;
10550;SDS011;5324;50.684;3.862;2022-07-29T07:22:50;6.03;;;3.38;;
10550;SDS011;5324;50.684;3.862;2022-07-29T07:25:16;3.63;;;3.17;;
10550;SDS011;5324;50.684;3.862;2022-07-29T07:27:45;10.02;;;3.30;;
10550;SDS011;5324;50.684;3.862;2022-07-29T07:30:11;4.18;;;3.20;;
10550;SDS011;5324;50.684;3.862;2022-07-29T07:32:37;5.90;;;3.15;;
10550;SDS011;5324;50.684;3.862;2022-07-29T07:35:05;4.07;;;2.92;;
10550;SDS011;5324;50.684;3.862;2022-07-29T07:37:31;4.35;;;2.70;;
10550;SDS011;5324;50.684;3.862;2022-07-29T07:39:57;3.95;;;3.08;;
10550;SDS011;5324;50.684;3.862;2022-07-29T07:42:24;5.47;;;3.25;;
10550;SDS011;5324;50.684;3.862;2022-07-29T07:44:50;3.80;;;2.90;;
10550;SDS011;5324;50.684;3.862;2022-07-29T07:47:16;5.57;;;3.80;;
10550;SDS011;5324;50.684;3.862;2022-07-29T07:49:51;5.93;;;2.92;;
10550;SDS011;5324;50.684;3.862;2022-07-29T07:52:18;5.05;;;3.70;;
10550;SDS011;5324;50.684;3.862;2022-07-29T07:54:45;8.10;;;3.70;;
10550;SDS011;5324;50.684;3.862;2022-07-29T07:57:11;3.40;;;3.10;;
10550;SDS011;5324;50.684;3.862;2022-07-29T07:59:37;6.13;;;3.70;;
10550;SDS011;5324;50.684;3.862;2022-07-29T08:02:04;4.22;;;2.85;;
10550;SDS011;5324;50.684;3.862;2022-07-29T08:04:30;4.25;;;2.78;;
10550;SDS011;5324;50.684;3.862;2022-07-29T08:06:56;5.03;;;3.15;;
10550;SDS011;5324;50.684;3.862;2022-07-29T08:09:23;4.10;;;3.70;;
10550;SDS011;5324;50.684;3.862;2022-07-29T08:11:49;3.33;;;2.80;;
10550;SDS011;5324;50.684;3.862;2022-07-29T08:14:15;5.57;;;3.00;;
10550;SDS011;5324;50.684;3.862;2022-07-29T08:16:42;4.22;;;3.33;;
10550;SDS011;5324;50.684;3.862;2022-07-29T08:19:08;5.03;;;3.13;;
10550;SDS011;5324;50.684;3.862;2022-07-29T08:21:34;6.57;;;2.50;;
10550;SDS011;5324;50.684;3.862;2022-07-29T08:24:00;5.20;;;3.10;;
10550;SDS011;5324;50.684;3.862;2022-07-29T08:26:45;3.70;;;2.75;;
10550;SDS011;5324;50.684;3.862;2022-07-29T08:29:12;8.05;;;3.45;;
10550;SDS011;5324;50.684;3.862;2022-07-29T08:31:38;4.93;;;2.88;;
10550;SDS011;5324;50.684;3.862;2022-07-29T08:34:04;3.58;;;2.38;;
10550;SDS011;5324;50.684;3.862;2022-07-29T08:36:31;2.80;;;2.53;;
10550;SDS011;5324;50.684;3.862;2022-07-29T08:38:57;5.20;;;2.55;;
10550;SDS011;5324;50.684;3.862;2022-07-29T08:41:23;4.93;;;2.45;;
10550;SDS011;5324;50.684;3.862;2022-07-29T08:43:50;4.85;;;2.63;;
10550;SDS011;5324;50.684;3.862;2022-07-29T08:46:17;3.90;;;2.22;;
10550;SDS011;5324;50.684;3.862;2022-07-29T08:48:43;3.83;;;2.65;;
10550;SDS011;5324;50.684;3.862;2022-07-29T08:51:12;3.92;;;2.35;;
10550;SDS011;5324;50.684;3.862;2022-07-29T08:53:40;4.88;;;2.42;;
10550;SDS011;5324;50.684;3.862;2022-07-29T08:56:07;4.35;;;2.15;;
10550;SDS011;5324;50.684;3.862;2022-07-29T08:58:36;4.25;;;2.90;;
10550;SDS011;5324;50.684;3.862;2022-07-29T09:01:03;9.55;;;2.45;;
10550;SDS011;5324;50.684;3.862;2022-07-29T09:03:32;3.58;;;2.55;;
10550;SDS011;5324;50.684;3.862;2022-07-29T09:06:00;6.80;;;2.58;;
10550;SDS011;5324;50.684;3.862;2022-07-29T09:08:26;6.63;;;2.53;;
10550;SDS011;5324;50.684;3.862;2022-07-29T09:10:53;11.80;;;3.45;;
10550;SDS011;5324;50.684;3.862;2022-07-29T09:13:21;8.18;;;2.47;;
10550;SDS011;5324;50.684;3.862;2022-07-29T09:15:47;6.40;;;2.60;;
10550;SDS011;5324;50.684;3.862;2022-07-29T09:18:58;4.55;;;2.20;;
10550;SDS011;5324;50.684;3.862;2022-07-29T09:21:00;4.07;;;2.80;;
10550;SDS011;5324;50.684;3.862;2022-07-29T09:26:30;3.20;;;2.33;;
10550;SDS011;5324;50.684;3.862;2022-07-29T09:28:57;2.53;;;2.33;;
10550;SDS011;5324;50.684;3.862;2022-07-29T09:31:28;4.05;;;2.80;;
10550;SDS011;5324;50.684;3.862;2022-07-29T09:33:58;3.78;;;2.83;;
10550;SDS011;5324;50.684;3.862;2022-07-29T09:36:25;3.47;;;2.50;;
10550;SDS011;5324;50.684;3.862;2022-07-29T09:39:00;3.58;;;3.05;;
10550;SDS011;5324;50.684;3.862;2022-07-29T09:41:27;4.90;;;2.33;;
10550;SDS011;5324;50.684;3.862;2022-07-29T09:43:54;2.47;;;2.28;;
10550;SDS011;5324;50.684;3.862;2022-07-29T09:46:20;3.80;;;2.33;;
10550;SDS011;5324;50.684;3.862;2022-07-29T09:48:52;4.82;;;2.95;;
10550;SDS011;5324;50.684;3.862;2022-07-29T09:51:31;4.72;;;2.97;;
10550;SDS011;5324;50.684;3.862;2022-07-29T09:53:57;5.93;;;3.03;;
10550;SDS011;5324;50.684;3.862;2022-07-29T09:56:40;2.20;;;2.00;;
10550;SDS011;5324;50.684;3.862;2022-07-29T09:59:07;2.17;;;1.60;;
10550;SDS011;5324;50.684;3.862;2022-07-29T10:01:33;2.60;;;1.83;;
10550;SDS011;5324;50.684;3.862;2022-07-29T10:04:00;3.50;;;2.30;;
10550;SDS011;5324;50.684;3.862;2022-07-29T10:06:29;2.25;;;1.92;;
10550;SDS011;5324;50.684;3.862;2022-07-29T10:09:01;2.92;;;2.70;;
10550;SDS011;5324;50.684;3.862;2022-07-29T10:11:32;2.92;;;2.30;;
10550;SDS011;5324;50.684;3.862;2022-07-29T10:13:58;3.53;;;2.80;;
10550;SDS011;5324;50.684;3.862;2022-07-29T10:16:27;4.38;;;2.35;;
10550;SDS011;5324;50.684;3.862;2022-07-29T10:18:57;2.45;;;2.08;;
10550;SDS011;5324;50.684;3.862;2022-07-29T10:21:24;2.50;;;2.30;;
10550;SDS011;5324;50.684;3.862;2022-07-29T10:23:51;4.85;;;2.38;;
10550;SDS011;5324;50.684;3.862;2022-07-29T10:26:17;2.97;;;2.38;;
10550;SDS011;5324;50.684;3.862;2022-07-29T10:28:43;4.03;;;2.10;;
10550;SDS011;5324;50.684;3.862;2022-07-29T10:31:17;5.32;;;2.58;;
10550;SDS011;5324;50.684;3.862;2022-07-29T10:36:54;2.45;;;1.85;;
10550;SDS011;5324;50.684;3.862;2022-07-29T10:39:24;3.20;;;2.20;;
10550;SDS011;5324;50.684;3.862;2022-07-29T10:41:56;3.22;;;2.20;;
10550;SDS011;5324;50.684;3.862;2022-07-29T10:44:25;2.42;;;2.22;;
10550;SDS011;5324;50.684;3.862;2022-07-29T10:46:52;4.45;;;2.63;;
10550;SDS011;5324;50.684;3.862;2022-07-29T10:49:19;3.20;;;2.20;;
10550;SDS011;5324;50.684;3.862;2022-07-29T10:54:18;3.70;;;2.35;;
10550;SDS011;5324;50.684;3.862;2022-07-29T10:56:44;2.42;;;2.22;;
10550;SDS011;5324;50.684;3.862;2022-07-29T11:01:48;3.78;;;2.58;;
10550;SDS011;5324;50.684;3.862;2022-07-29T11:04:58;3.70;;;2.45;;
10550;SDS011;5324;50.684;3.862;2022-07-29T11:07:06;2.67;;;2.47;;
10550;SDS011;5324;50.684;3.862;2022-07-29T11:09:33;3.88;;;1.95;;
10550;SDS011;5324;50.684;3.862;2022-07-29T11:11:59;4.13;;;2.53;;
10550;SDS011;5324;50.684;3.862;2022-07-29T11:17:10;3.10;;;2.38;;
10550;SDS011;5324;50.684;3.862;2022-07-29T11:19:36;2.65;;;2.35;;
10550;SDS011;5324;50.684;3.862;2022-07-29T11:22:07;2.95;;;2.35;;
10550;SDS011;5324;50.684;3.862;2022-07-29T11:24:33;4.53;;;2.58;;
10550;SDS011;5324;50.684;3.862;2022-07-29T11:29:49;3.58;;;3.25;;
10550;SDS011;5324;50.684;3.862;2022-07-29T11:32:16;6.22;;;3.47;;
10550;SDS011;5324;50.684;3.862;2022-07-29T11:34:44;3.20;;;2.88;;
10550;SDS011;5324;50.684;3.862;2022-07-29T11:40:13;4.88;;;3.10;;
10550;SDS011;5324;50.684;3.862;2022-07-29T11:45:13;4.22;;;2.22;;
10550;SDS011;5324;50.684;3.862;2022-07-29T11:47:50;2.45;;;1.92;;
10550;SDS011;5324;50.684;3.862;2022-07-29T11:50:17;5.70;;;3.10;;
10550;SDS011;5324;50.684;3.862;2022-07-29T11:52:44;3.83;;;3.03;;
10550;SDS011;5324;50.684;3.862;2022-07-29T11:55:18;6.03;;;3.25;;
10550;SDS011;5324;50.684;3.862;2022-07-29T11:57:45;5.35;;;3.50;;
10550;SDS011;5324;50.684;3.862;2022-07-29T12:00:12;4.85;;;2.95;;
10550;SDS011;5324;50.684;3.862;2022-07-29T12:02:47;5.22;;;3.67;;
10550;SDS011;5324;50.684;3.862;2022-07-29T12:05:13;3.75;;;3.30;;
10550;SDS011;5324;50.684;3.862;2022-07-29T12:07:39;3.90;;;2.75;;
10550;SDS011;5324;50.684;3.862;2022-07-29T12:10:07;4.28;;;2.88;;
10550;SDS011;5324;50.684;3.862;2022-07-29T12:12:34;7.20;;;3.08;;
10550;SDS011;5324;50.684;3.862;2022-07-29T12:15:16;5.30;;;3.65;;
10550;SDS011;5324;50.684;3.862;2022-07-29T12:17:44;3.75;;;2.83;;
10550;SDS011;5324;50.684;3.862;2022-07-29T12:20:11;3.65;;;2.95;;
10550;SDS011;5324;50.684;3.862;2022-07-29T12:22:41;4.05;;;3.65;;
10550;SDS011;5324;50.684;3.862;2022-07-29T12:25:13;5.00;;;3.85;;
10550;SDS011;5324;50.684;3.862;2022-07-29T12:27:41;4.68;;;3.30;;
10550;SDS011;5324;50.684;3.862;2022-07-29T12:30:14;6.68;;;3.28;;
10550;SDS011;5324;50.684;3.862;2022-07-29T12:32:43;4.30;;;3.28;;
10550;SDS011;5324;50.684;3.862;2022-07-29T12:35:10;3.25;;;2.95;;
10550;SDS011;5324;50.684;3.862;2022-07-29T12:37:37;7.97;;;3.22;;
10550;SDS011;5324;50.684;3.862;2022-07-29T12:40:04;7.63;;;3.50;;
10550;SDS011;5324;50.684;3.862;2022-07-29T12:42:30;5.50;;;3.60;;
10550;SDS011;5324;50.684;3.862;2022-07-29T12:44:56;3.97;;;3.10;;
10550;SDS011;5324;50.684;3.862;2022-07-29T12:47:23;3.95;;;3.40;;
10550;SDS011;5324;50.684;3.862;2022-07-29T12:49:49;4.45;;;2.80;;
10550;SDS011;5324;50.684;3.862;2022-07-29T12:52:33;3.67;;;2.55;;
10550;SDS011;5324;50.684;3.862;2022-07-29T12:54:59;4.32;;;3.38;;
10550;SDS011;5324;50.684;3.862;2022-07-29T12:57:25;5.47;;;4.13;;
10550;SDS011;5324;50.684;3.862;2022-07-29T13:00:02;3.38;;;2.55;;
10550;SDS011;5324;50.684;3.862;2022-07-29T13:02:29;3.63;;;2.72;;
10550;SDS011;5324;50.684;3.862;2022-07-29T13:04:59;4.90;;;3.33;;
10550;SDS011;5324;50.684;3.862;2022-07-29T13:07:26;2.60;;;2.40;;
10550;SDS011;5324;50.684;3.862;2022-07-29T13:09:53;3.45;;;2.88;;
10550;SDS011;5324;50.684;3.862;2022-07-29T13:12:19;6.47;;;3.17;;
10550;SDS011;5324;50.684;3.862;2022-07-29T13:14:49;4.13;;;2.95;;
10550;SDS011;5324;50.684;3.862;2022-07-29T13:17:16;3.15;;;2.20;;
10550;SDS011;5324;50.684;3.862;2022-07-29T13:19:44;3.30;;;2.00;;
10550;SDS011;5324;50.684;3.862;2022-07-29T13:22:11;4.63;;;2.63;;
10550;SDS011;5324;50.684;3.862;2022-07-29T13:24:50;6.07;;;2.63;;
10550;SDS011;5324;50.684;3.862;2022-07-29T13:27:17;2.42;;;2.15;;
10550;SDS011;5324;50.684;3.862;2022-07-29T13:29:43;1.98;;;1.75;;
10550;SDS011;5324;50.684;3.862;2022-07-29T13:32:09;5.60;;;1.98;;
10550;SDS011;5324;50.684;3.862;2022-07-29T13:34:35;1.50;;;1.40;;
10550;SDS011;5324;50.684;3.862;2022-07-29T13:37:01;4.88;;;2.28;;
10550;SDS011;5324;50.684;3.862;2022-07-29T13:39:27;4.22;;;2.22;;
10550;SDS011;5324;50.684;3.862;2022-07-29T13:41:53;1.88;;;1.77;;
10550;SDS011;5324;50.684;3.862;2022-07-29T13:44:19;2.13;;;1.80;;
10550;SDS011;5324;50.684;3.862;2022-07-29T13:46:46;3.53;;;2.20;;
10550;SDS011;5324;50.684;3.862;2022-07-29T13:49:12;2.03;;;1.75;;
10550;SDS011;5324;50.684;3.862;2022-07-29T13:51:38;4.75;;;2.03;;
10550;SDS011;5324;50.684;3.862;2022-07-29T13:54:04;1.88;;;1.63;;
10550;SDS011;5324;50.684;3.862;2022-07-29T13:56:30;2.80;;;2.05;;
10550;SDS011;5324;50.684;3.862;2022-07-29T13:58:56;2.50;;;2.00;;
10550;SDS011;5324;50.684;3.862;2022-07-29T14:01:23;3.00;;;1.90;;
10550;SDS011;5324;50.684;3.862;2022-07-29T14:03:49;2.58;;;2.00;;
10550;SDS011;5324;50.684;3.862;2022-07-29T14:06:15;2.45;;;2.03;;
10550;SDS011;5324;50.684;3.862;2022-07-29T14:08:41;1.70;;;1.60;;
10550;SDS011;5324;50.684;3.862;2022-07-29T14:11:07;3.42;;;1.67;;
10550;SDS011;5324;50.684;3.862;2022-07-29T14:13:34;3.38;;;2.15;;
10550;SDS011;5324;50.684;3.862;2022-07-29T14:16:00;3.05;;;2.00;;
10550;SDS011;5324;50.684;3.862;2022-07-29T14:18:26;2.20;;;2.00;;
10550;SDS011;5324;50.684;3.862;2022-07-29T14:20:52;3.10;;;1.75;;
10550;SDS011;5324;50.684;3.862;2022-07-29T14:23:18;2.30;;;1.75;;
10550;SDS011;5324;50.684;3.862;2022-07-29T14:25:44;2.75;;;2.15;;
10550;SDS011;5324;50.684;3.862;2022-07-29T14:28:10;2.45;;;1.83;;
10550;SDS011;5324;50.684;3.862;2022-07-29T14:30:36;3.22;;;2.30;;
10550;SDS011;5324;50.684;3.862;2022-07-29T14:33:02;3.90;;;1.73;;
10550;SDS011;5324;50.684;3.862;2022-07-29T14:35:28;1.88;;;1.73;;
10550;SDS011;5324;50.684;3.862;2022-07-29T14:37:54;1.80;;;1.70;;
10550;SDS011;5324;50.684;3.862;2022-07-29T14:40:20;3.70;;;1.67;;
10550;SDS011;5324;50.684;3.862;2022-07-29T14:42:46;2.00;;;1.90;;
10550;SDS011;5324;50.684;3.862;2022-07-29T14:45:12;2.10;;;1.77;;
10550;SDS011;5324;50.684;3.862;2022-07-29T14:47:39;2.33;;;1.95;;
10550;SDS011;5324;50.684;3.862;2022-07-29T14:50:05;3.33;;;1.70;;
10550;SDS011;5324;50.684;3.862;2022-07-29T14:52:31;3.97;;;1.80;;
10550;SDS011;5324;50.684;3.862;2022-07-29T14:54:58;2.30;;;1.95;;
10550;SDS011;5324;50.684;3.862;2022-07-29T14:57:24;3.70;;;2.20;;
10550;SDS011;5324;50.684;3.862;2022-07-29T14:59:50;1.90;;;1.77;;
10550;SDS011;5324;50.684;3.862;2022-07-29T15:02:16;1.80;;;1.70;;
10550;SDS011;5324;50.684;3.862;2022-07-29T15:04:42;1.75;;;1.63;;
10550;SDS011;5324;50.684;3.862;2022-07-29T15:07:10;2.97;;;1.63;;
10550;SDS011;5324;50.684;3.862;2022-07-29T15:09:37;1.60;;;1.50;;
10550;SDS011;5324;50.684;3.862;2022-07-29T15:12:03;3.13;;;2.00;;
10550;SDS011;5324;50.684;3.862;2022-07-29T15:14:29;3.35;;;1.58;;
10550;SDS011;5324;50.684;3.862;2022-07-29T15:16:56;4.03;;;1.90;;
10550;SDS011;5324;50.684;3.862;2022-07-29T15:19:22;1.98;;;1.55;;
10550;SDS011;5324;50.684;3.862;2022-07-29T15:21:49;2.25;;;1.95;;
10550;SDS011;5324;50.684;3.862;2022-07-29T15:24:15;3.10;;;2.00;;
10550;SDS011;5324;50.684;3.862;2022-07-29T15:26:41;3.65;;;2.20;;
10550;SDS011;5324;50.684;3.862;2022-07-29T15:29:07;5.47;;;2.97;;
10550;SDS011;5324;50.684;3.862;2022-07-29T15:31:33;1.92;;;1.70;;
10550;SDS011;5324;50.684;3.862;2022-07-29T15:33:59;2.17;;;1.70;;
10550;SDS011;5324;50.684;3.862;2022-07-29T15:36:25;2.05;;;1.90;;
10550;SDS011;5324;50.684;3.862;2022-07-29T15:38:55;2.30;;;2.10;;